Latest Weather Observations for Hopetoun North

IDW60801

Issued at 11:35 pm WST Tuesday 30 September 2014 (issued every 30 minutes, with the page automatically refreshed every 10 minutes)

About weather observations | Map of weather stations | Latest weather observations for WA | Other Formats
Station Details ID: 009961 Name: HOPETOUN NORTH Lat: -33.93 Lon: 120.13 Height: 26.0 m
Data from the previous 72 hours. | See also: Recent months at Hopetoun North
Date/Time
WST
Temp
°C
App
Temp
°C
Dew
Point
Rel
Hum
%
Delta-T
°C
Wind Press
QNH
hPa
Press
MSL
hPa
Rain
since 9 am
mm
Dir
 
Spd
km/h
Gust
km/h
Spd
kts
Gust
kts
30/11:30pm 7.2 4.8 7.2 100 0.0 NNE 9 9 5 5 1025.6 1025.6 0.0
30/11:00pm 7.5 5.6 7.5 100 0.0 NNE 7 9 4 5 1025.5 1025.5 0.0
30/10:30pm 8.0 6.4 8.0 100 0.0 NE 6 7 3 4 1025.4 1025.4 0.0
30/10:00pm 7.9 6.1 7.9 100 0.0 NE 7 9 4 5 1025.4 1025.4 0.0
30/09:30pm 8.7 7.3 8.7 100 0.0 NE 6 7 3 4 1025.3 1025.3 0.0
30/09:00pm 9.3 8.0 9.3 100 0.0 NE 6 6 3 3 1025.3 1025.3 0.0
30/08:30pm 10.5 9.4 10.0 97 0.3 NE 6 7 3 4 1025.2 1025.2 0.0
30/08:00pm 12.5 11.2 11.2 92 0.7 ESE 9 15 5 8 1025.2 1025.2 0.0
30/07:30pm 12.6 10.8 11.0 90 0.8 ESE 11 15 6 8 1025.0 1025.0 0.0
30/07:00pm 12.4 10.9 10.5 88 1.0 ESE 9 15 5 8 1024.6 1024.6 0.0
30/06:30pm 12.5 10.8 9.9 84 1.3 SE 9 13 5 7 1024.3 1024.3 0.0
30/06:00pm 12.7 10.8 9.2 79 1.8 ESE 9 13 5 7 1024.0 1024.0 0.0
30/05:30pm 13.7 11.5 9.2 74 2.3 SE 11 17 6 9 1024.0 1024.0 0.0
30/05:00pm 14.3 11.6 8.9 70 2.7 SE 13 20 7 11 1023.8 1023.8 0.0
30/04:30pm 14.7 11.6 8.9 68 3.0 SE 15 22 8 12 1023.7 1023.7 0.0
30/04:00pm 15.0 11.5 8.9 67 3.1 SE 17 22 9 12 1023.5 1023.5 0.0
30/03:30pm 15.3 12.3 9.2 67 3.1 SE 15 20 8 11 1023.3 1023.3 0.0
30/03:00pm 15.6 12.6 9.3 66 3.2 SSE 15 20 8 11 1023.1 1023.1 0.0
30/02:30pm 14.8 11.3 8.7 67 3.1 SSE 17 26 9 14 1023.2 1023.2 0.0
30/02:00pm 15.4 12.5 9.5 68 3.0 S 15 20 8 11 1023.1 1023.1 0.0
30/01:30pm 15.2 12.1 8.9 66 3.2 S 15 22 8 12 1023.2 1023.2 0.0
30/01:00pm 14.8 11.8 9.4 70 2.8 S 15 20 8 11 1023.4 1023.4 0.0
30/12:30pm 14.6 12.8 10.8 78 2.0 S 11 20 6 11 1023.5 1023.5 0.0
30/12:00pm 13.8 12.5 11.3 85 1.3 S 9 15 5 8 1023.8 1023.8 0.0
30/11:30am 14.3 13.1 11.5 83 1.5 S 9 19 5 10 1023.9 1023.9 0.0
30/11:00am 14.3 12.7 11.6 84 1.4 S 11 17 6 9 1023.8 1023.8 0.0
30/10:30am 14.4 12.8 12.8 90 0.9 SW 13 20 7 11 1023.8 1023.8 0.0
30/10:00am 13.4 12.4 13.4 100 0.0 SW 11 19 6 10 1023.8 1023.8 0.0
30/09:30am 12.8 12.0 12.8 100 0.0 WSW 9 17 5 9 1023.7 1023.7 0.0
30/09:00am 11.8 10.3 11.8 100 0.0 W 11 17 6 9 1023.6 1023.6 0.6
30/08:30am 11.4 10.1 11.4 100 0.0 W 9 17 5 9 1023.4 1023.4 0.4
30/08:00am 12.1 9.3 11.2 94 0.5 WSW 17 22 9 12 1023.1 1023.1 0.0
30/07:30am 11.7 9.7 11.4 98 0.2 W 13 17 7 9 1022.7 1022.7 0.0
30/07:00am 11.2 8.6 10.6 96 0.3 W 15 19 8 10 1022.3 1022.3 0.0
30/06:30am 10.9 9.7 10.3 96 0.3 W 7 13 4 7 1022.2 1022.2 0.0
30/06:00am 10.1 8.8 10.0 99 0.1 NNW 7 11 4 6 1021.7 1021.7 0.0
30/05:30am 10.5 9.0 10.5 100 0.0 WNW 9 13 5 7 1021.4 1021.4 0.0
30/05:00am 11.2 9.4 11.0 99 0.1 W 11 19 6 10 1021.0 1021.0 0.0
30/04:30am 11.5 8.7 11.3 99 0.1 WSW 17 24 9 13 1020.7 1020.7 0.0
30/04:00am 11.0 8.5 11.0 100 0.0 WSW 15 22 8 12 1020.1 1020.0 0.0
30/03:30am 8.8 6.8 8.8 100 0.0 NW 9 13 5 7 1019.8 1019.7 0.0
30/03:00am 9.5 6.8 8.9 96 0.3 W 13 17 7 9 1019.4 1019.3 0.0
30/02:30am 10.2 7.5 9.0 92 0.6 W 13 17 7 9 1019.1 1019.0 0.0
30/02:00am 11.6 7.9 10.2 91 0.7 WSW 20 28 11 15 1019.0 1018.9 0.0
30/01:30am 11.6 8.1 10.2 91 0.7 WSW 19 30 10 16 1019.1 1019.0 0.0
30/01:00am 11.7 7.5 9.8 88 1.0 WSW 22 30 12 16 1019.1 1019.0 0.0
30/12:30am 10.4 8.0 8.8 90 0.8 W 11 17 6 9 1019.0 1018.9 0.0
30/12:00am 10.6 8.1 8.2 85 1.2 W 11 15 6 8 1018.9 1018.8 0.0
 
Date/Time
WST
Temp
°C
App
Temp
°C
Dew
Point
Rel
Hum
%
Delta-T
°C
Wind Press
QNH
hPa
Press
MSL
hPa
Rain
since 9 am
mm
Dir
 
Spd
km/h
Gust
km/h
Spd
kts
Gust
kts
29/11:30pm 11.3 8.9 8.7 84 1.3 W 11 15 6 8 1018.6 1018.5 0.0
29/11:00pm 12.7 9.6 9.0 78 1.9 W 15 24 8 13 1018.5 1018.4 0.0
29/10:30pm 13.3 9.6 9.5 78 1.9 WSW 19 26 10 14 1018.2 1018.1 0.0
29/10:00pm 14.1 9.8 10.7 80 1.8 WSW 24 37 13 20 1018.3 1018.2 0.0
29/09:30pm 14.4 11.0 11.4 82 1.6 SW 20 30 11 16 1018.2 1018.1 0.0
29/09:00pm 14.4 9.9 11.4 82 1.6 SW 26 37 14 20 1018.2 1018.1 0.0
29/08:30pm 14.4 10.5 12.1 86 1.2 SW 24 35 13 19 1018.2 1018.1 0.0
29/08:00pm 14.4 10.6 12.4 88 1.1 SW 24 32 13 17 1017.5 1017.4 0.0
29/07:30pm 14.2 10.9 12.8 91 0.8 SSW 22 28 12 15 1016.9 1016.8 0.0
29/07:00pm 14.1 11.3 12.7 91 0.8 SW 19 26 10 14 1016.4 1016.3 0.0
29/06:30pm 13.8 10.6 12.0 89 1.0 SW 20 26 11 14 1015.8 1015.7 0.0
29/06:00pm 13.7 10.8 12.4 92 0.7 SSW 19 28 10 15 1015.3 1015.3 0.0
29/05:30pm 14.5 10.7 12.4 87 1.1 SSW 24 33 13 18 1014.7 1014.7 0.0
29/05:00pm 15.6 12.6 12.5 82 1.7 SSW 20 26 11 14 1014.2 1014.2 0.0
29/04:30pm 16.0 13.1 12.2 78 2.1 SSW 19 26 10 14 1013.7 1013.7 0.0
29/04:00pm 15.4 12.4 12.0 80 1.8 SSW 19 26 10 14 1013.3 1013.3 0.0
29/03:30pm 15.9 12.6 11.7 76 2.3 SSW 20 28 11 15 1013.0 1013.0 0.0
29/03:00pm 15.8 12.1 11.4 75 2.4 S 22 30 12 16 1012.7 1012.7 0.0
29/02:30pm 19.1 14.4 7.8 48 5.8 WSW 22 33 12 18 1012.4 1012.4 0.0
29/02:00pm 19.7 14.0 6.8 43 6.5 W 26 41 14 22 1012.4 1012.4 0.0
29/01:30pm 21.2 16.8 9.1 46 6.4 W 22 33 12 18 1012.7 1012.7 0.0
29/01:00pm 19.8 15.5 7.9 46 6.1 W 20 33 11 18 1012.9 1012.9 0.0
29/12:30pm 20.3 15.9 8.9 48 6.0 W 22 33 12 18 1013.2 1013.2 0.0
29/12:00pm 19.1 14.0 7.5 47 5.9 W 24 43 13 23 1013.3 1013.3 0.0
29/11:30am 19.3 13.4 7.7 47 5.9 WNW 28 44 15 24 1013.4 1013.4 0.0
29/11:00am 18.3 11.9 7.1 48 5.6 WNW 30 44 16 24 1013.5 1013.5 0.0
29/10:30am 18.4 13.5 8.4 52 5.2 W 24 37 13 20 1013.6 1013.6 0.0
29/10:00am 16.9 12.8 8.8 59 4.2 W 20 37 11 20 1014.0 1014.0 0.0
29/09:30am 16.5 12.2 9.4 63 3.7 WNW 22 33 12 18 1014.1 1014.1 0.0
29/09:00am 15.9 12.4 10.9 72 2.7 WNW 20 33 11 18 1014.0 1014.0 0.2
29/08:30am 15.0 11.4 10.4 74 2.4 WNW 20 32 11 17 1013.9 1013.9 0.2
29/08:00am 14.5 11.6 11.1 80 1.8 WNW 17 30 9 16 1013.9 1013.9 0.2
29/07:30am 13.4 10.6 11.5 88 1.0 WNW 17 30 9 16 1013.7 1013.7 0.2
29/07:00am 12.5 10.4 12.3 99 0.1 WNW 15 26 8 14 1013.6 1013.6 0.2
29/06:30am 11.1 8.6 11.1 100 0.0 NW 15 26 8 14 1013.5 1013.5 0.2
29/06:00am 10.6 9.1 10.6 100 0.0 NW 9 15 5 8 1013.4 1013.4 0.2
29/05:30am 10.3 8.3 10.3 100 0.0 NW 11 17 6 9 1013.3 1013.3 0.2
29/05:00am 10.6 8.0 10.6 100 0.0 WNW 15 24 8 13 1012.9 1012.9 0.2
29/04:30am 10.6 8.7 10.6 100 0.0 NW 11 24 6 13 1012.9 1012.9 0.2
29/04:00am 10.4 8.5 10.4 100 0.0 NW 11 17 6 9 1013.0 1013.0 0.2
29/03:30am 10.4 8.1 10.4 100 0.0 NW 13 22 7 12 1013.0 1013.0 0.2
29/03:00am 10.6 8.7 10.6 100 0.0 NW 11 20 6 11 1013.1 1013.1 0.2
29/02:30am 10.8 9.0 10.8 100 0.0 NW 11 19 6 10 1013.0 1013.0 0.2
29/02:00am 11.2 9.0 10.7 97 0.3 NW 13 20 7 11 1013.2 1013.2 0.2
29/01:30am 11.6 9.4 10.8 95 0.4 WNW 13 20 7 11 1013.1 1013.1 0.2
29/01:00am 11.9 9.8 11.0 94 0.5 NW 13 20 7 11 1013.1 1013.1 0.2
29/12:30am 12.4 10.0 11.5 94 0.5 WNW 15 28 8 15 1013.0 1013.0 0.2
29/12:00am 12.2 10.4 12.2 100 0.0 WNW 13 20 7 11 1013.2 1013.2 0.2
 
Date/Time
WST
Temp
°C
App
Temp
°C
Dew
Point
Rel
Hum
%
Delta-T
°C
Wind Press
QNH
hPa
Press
MSL
hPa
Rain
since 9 am
mm
Dir
 
Spd
km/h
Gust
km/h
Spd
kts
Gust
kts
28/11:30pm 11.5 10.3 11.5 100 0.0 WNW 9 17 5 9 1013.3 1013.3 0.2
28/11:00pm 10.3 9.7 10.3 100 0.0 NNW 4 6 2 3 1013.3 1013.3 0.2
28/10:30pm 11.1 10.3 11.1 100 0.0 NNE 6 9 3 5 1013.4 1013.4 0.2
28/10:00pm 10.3 9.1 10.3 100 0.0 NNE 7 9 4 5 1013.8 1013.8 0.2
28/09:30pm 11.0 10.6 11.0 100 0.0 N 4 6 2 3 1014.2 1014.2 0.2
28/09:00pm 11.3 11.0 11.3 100 0.0 NNE 4 6 2 3 1014.4 1014.4 0.2
28/08:30pm 12.1 12.0 12.1 100 0.0 NNE 4 6 2 3 1014.5 1014.5 0.2
28/08:00pm 12.0 11.5 12.0 100 0.0 SE 6 7 3 4 1014.4 1014.4 0.2
28/07:30pm 12.0 12.6 12.0 100 0.0 CALM 0 0 0 0 1014.1 1014.1 0.2
28/07:00pm 12.5 13.3 12.5 100 0.0 CALM 0 0 0 0 1014.1 1014.1 0.2
28/06:30pm 12.4 12.8 12.4 100 0.0 S 2 4 1 2 1013.8 1013.8 0.2
28/06:00pm 13.1 12.3 12.8 98 0.2 SSW 9 11 5 6 1013.6 1013.6 0.2
28/05:30pm 13.6 12.7 12.7 94 0.5 S 9 13 5 7 1013.6 1013.6 0.2
28/05:00pm 13.9 12.6 12.6 92 0.7 SSW 11 13 6 7 1013.5 1013.5 0.2
28/04:30pm 14.2 12.2 12.8 91 0.8 SSW 15 19 8 10 1013.2 1013.2 0.2
28/04:00pm 14.3 12.2 12.5 89 1.0 S 15 20 8 11 1012.8 1012.8 0.2
28/03:30pm 14.8 12.2 12.1 84 1.5 S 17 22 9 12 1012.6 1012.6 0.2
28/03:00pm 15.5 13.1 11.5 77 2.2 SSW 15 20 8 11 1012.3 1012.3 0.2
28/02:30pm 15.4 12.0 11.4 77 2.1 S 20 28 11 15 1012.2 1012.2 0.2
28/02:00pm 17.9 13.2 7.6 51 5.2 W 22 32 12 17 1012.1 1012.1 0.2
28/01:30pm 17.5 13.2 7.8 53 4.9 WSW 20 30 11 16 1012.0 1012.0 0.2
28/01:00pm 17.5 13.6 8.6 56 4.6 WSW 19 32 10 17 1011.9 1011.9 0.2
28/12:30pm 17.8 13.5 9.2 57 4.5 WSW 22 33 12 18 1012.1 1012.1 0.2
28/12:00pm 17.9 13.8 8.5 54 4.8 W 20 33 11 18 1012.2 1012.2 0.2
28/11:30am 18.3 12.5 8.0 51 5.3 W 28 37 15 20 1012.2 1012.2 0.2
28/11:00am 17.9 12.0 7.6 51 5.2 W 28 43 15 23 1012.2 1012.2 0.2
28/10:33am 17.4 11.2 7.7 53 4.9 W 30 48 16 26 1012.4 1012.4 0.2
28/10:30am 17.1 10.3 7.5 53 4.8 W 33 50 18 27 1012.4 1012.4 0.2
28/10:19am 17.0 10.2 7.1 52 4.9 W 32 54 17 29 1012.3 1012.3 0.2
28/10:00am 16.4 10.1 7.3 55 4.5 W 30 44 16 24 1012.5 1012.5 0.2
28/09:30am 15.2 8.8 7.0 58 4.0 W 30 48 16 26 1012.1 1012.1 0.2
28/09:23am 15.5 9.7 7.8 60 3.9 W 28 48 15 26 1012.0 1012.0 0.0
28/09:00am 14.0 7.0 6.8 62 3.5 W 33 50 18 27 1012.4 1012.4 2.4
28/08:35am 13.6 7.6 7.2 65 3.1 W 28 46 15 25 1012.3 1012.3 2.4
28/08:30am 13.8 8.3 7.6 66 3.1 W 26 41 14 22 1012.3 1012.3 2.4
28/08:15am 13.0 7.1 7.7 70 2.6 W 28 52 15 28 1012.3 1012.3 2.4
28/08:00am 12.3 7.7 8.0 75 2.1 WNW 22 37 12 20 1012.3 1012.3 2.4
28/07:30am 11.2 5.7 7.7 79 1.7 WNW 26 46 14 25 1012.0 1012.0 2.4
28/07:00am 10.2 5.1 7.6 84 1.2 WNW 24 35 13 19 1011.8 1011.8 2.4
28/06:30am 9.2 4.0 7.3 88 0.9 WNW 24 37 13 20 1011.2 1011.2 2.4
28/06:00am 8.8 3.1 6.9 88 0.9 WNW 26 43 14 23 1010.9 1010.9 2.4
28/05:30am 8.6 3.3 6.9 89 0.8 WNW 24 39 13 21 1010.6 1010.6 2.4
28/05:00am 8.6 3.3 6.7 88 0.9 WNW 24 39 13 21 1010.3 1010.3 2.4
28/04:30am 8.4 3.0 6.5 88 0.9 WNW 24 39 13 21 1009.8 1009.8 2.4
28/04:00am 8.4 2.6 6.4 87 0.9 WNW 26 39 14 21 1009.7 1009.7 2.4
28/03:30am 7.4 2.7 6.0 91 0.6 NW 20 32 11 17 1009.4 1009.4 2.4
28/03:00am 8.1 2.6 5.9 86 1.0 NW 24 37 13 20 1009.4 1009.4 2.4
28/02:30am 8.2 3.0 5.7 84 1.1 NW 22 37 12 20 1009.3 1009.3 2.4
28/02:00am 8.2 3.4 5.7 84 1.1 NW 20 32 11 17 1009.6 1009.6 2.4
28/01:30am 8.4 3.6 5.5 82 1.3 NW 20 32 11 17 1009.7 1009.7 2.4
28/01:00am 8.2 3.6 5.5 83 1.2 NW 19 33 10 18 1009.8 1009.8 2.4
28/12:30am 7.2 3.2 4.9 85 1.0 NW 15 22 8 12 1009.9 1009.9 2.4
28/12:00am 7.2 3.0 4.0 80 1.4 NNW 15 24 8 13 1010.0 1010.0 2.4

Other Formats:

Comma delimited format used in spreadsheet applications
http://www.bom.gov.au/fwo/IDW60801/IDW60801.95635.axf

JavaScript Object Notation format (JSON) in row-major order
http://www.bom.gov.au/fwo/IDW60801/IDW60801.95635.json